Terminal Aerodrome Forecast
Issued by NWS

Home | Current Version | Previous Version | Text Only | Print | Product List | Glossary On
Versions: 1 2 3 4 5 6 7 8 9 10 11 12
497
FTUS45 KABQ 230533
TAFFMN
TAF
KFMN 230533Z 2306/2406 17007KT P6SM BKN110
     FM230800 13010KT P6SM BKN100
     FM231700 26019G29KT 4SM -SHRA BR BKN030 OVC040
     FM240000 28017KT P6SM VCSH SCT040 BKN060=

USA.gov is the U.S. government's official web portal to all federal, state and local government web resources and services.